sensor_id;sensor_type;location;lat;lon;timestamp;pressure;altitude;pressure_sealevel;temperature;humidity
63715;BME280;49858;48.956;9.076;2022-09-17T00:01:37;98421.53;;;10.19;nan
63715;BME280;49858;48.956;9.076;2022-09-17T00:04:05;98416.00;;;10.35;nan
63715;BME280;49858;48.956;9.076;2022-09-17T00:06:34;98422.41;;;10.23;nan
63715;BME280;49858;48.956;9.076;2022-09-17T00:09:02;98424.09;;;9.92;nan
63715;BME280;49858;48.956;9.076;2022-09-17T00:11:32;98418.97;;;9.91;nan
63715;BME280;49858;48.956;9.076;2022-09-17T00:14:00;98426.97;;;9.80;nan
63715;BME280;49858;48.956;9.076;2022-09-17T00:16:30;98422.19;;;9.77;nan
63715;BME280;49858;48.956;9.076;2022-09-17T00:18:58;98426.19;;;9.80;nan
63715;BME280;49858;48.956;9.076;2022-09-17T00:21:26;98425.41;;;9.63;nan
63715;BME280;49858;48.956;9.076;2022-09-17T00:23:56;98427.84;;;9.84;nan
63715;BME280;49858;48.956;9.076;2022-09-17T00:26:24;98426.88;;;9.77;nan
63715;BME280;49858;48.956;9.076;2022-09-17T00:28:53;98424.03;;;9.89;nan
63715;BME280;49858;48.956;9.076;2022-09-17T00:31:21;98429.44;;;9.85;nan
63715;BME280;49858;48.956;9.076;2022-09-17T00:33:49;98427.84;;;9.84;nan
63715;BME280;49858;48.956;9.076;2022-09-17T00:36:17;98423.94;;;9.85;nan
63715;BME280;49858;48.956;9.076;2022-09-17T00:38:47;98422.59;;;9.60;nan
63715;BME280;49858;48.956;9.076;2022-09-17T00:41:16;98418.69;;;9.61;nan
63715;BME280;49858;48.956;9.076;2022-09-17T00:43:45;98418.69;;;9.61;nan
63715;BME280;49858;48.956;9.076;2022-09-17T00:49:03;98417.34;;;9.55;nan
63715;BME280;49858;48.956;9.076;2022-09-17T00:51:33;98416.03;;;9.48;nan
63715;BME280;49858;48.956;9.076;2022-09-17T00:54:01;98417.28;;;9.51;nan
63715;BME280;49858;48.956;9.076;2022-09-17T00:56:32;98424.72;;;9.51;nan
63715;BME280;49858;48.956;9.076;2022-09-17T00:59:00;98428.78;;;9.57;nan
63715;BME280;49858;48.956;9.076;2022-09-17T01:01:28;98423.91;;;9.50;nan
63715;BME280;49858;48.956;9.076;2022-09-17T01:03:56;98431.53;;;9.41;nan
63715;BME280;49858;48.956;9.076;2022-09-17T01:06:27;98431.72;;;9.32;nan
63715;BME280;49858;48.956;9.076;2022-09-17T01:09:02;98435.69;;;9.35;nan
63715;BME280;49858;48.956;9.076;2022-09-17T01:11:37;98434.19;;;9.37;nan
63715;BME280;49858;48.956;9.076;2022-09-17T01:14:13;98430.28;;;9.38;nan
63715;BME280;49858;48.956;9.076;2022-09-17T01:16:46;98441.53;;;9.33;nan
63715;BME280;49858;48.956;9.076;2022-09-17T01:19:41;98447.56;;;9.39;nan
63715;BME280;49858;48.956;9.076;2022-09-17T01:22:15;98451.09;;;9.39;nan
63715;BME280;49858;48.956;9.076;2022-09-17T01:24:46;98452.63;;;9.37;nan
63715;BME280;49858;48.956;9.076;2022-09-17T01:27:44;98461.56;;;9.34;nan
63715;BME280;49858;48.956;9.076;2022-09-17T01:30:15;98448.34;;;9.39;nan
63715;BME280;49858;48.956;9.076;2022-09-17T01:32:46;98459.50;;;9.31;nan
63715;BME280;49858;48.956;9.076;2022-09-17T01:35:17;98458.88;;;9.21;nan
63715;BME280;49858;48.956;9.076;2022-09-17T01:37:50;98465.44;;;9.48;nan
63715;BME280;49858;48.956;9.076;2022-09-17T01:40:23;98460.13;;;9.24;nan
63715;BME280;49858;48.956;9.076;2022-09-17T01:42:56;98458.53;;;9.39;nan
63715;BME280;49858;48.956;9.076;2022-09-17T01:45:26;98459.34;;;9.24;nan
63715;BME280;49858;48.956;9.076;2022-09-17T01:47:58;98458.72;;;9.30;nan
63715;BME280;49858;48.956;9.076;2022-09-17T01:50:29;98460.41;;;9.35;nan
63715;BME280;49858;48.956;9.076;2022-09-17T01:52:57;98456.50;;;9.52;nan
63715;BME280;49858;48.956;9.076;2022-09-17T01:55:28;98465.44;;;9.48;nan
63715;BME280;49858;48.956;9.076;2022-09-17T01:57:58;98469.19;;;9.56;nan
63715;BME280;49858;48.956;9.076;2022-09-17T02:00:28;98464.03;;;9.55;nan
63715;BME280;49858;48.956;9.076;2022-09-17T02:02:58;98462.19;;;9.43;nan
63715;BME280;49858;48.956;9.076;2022-09-17T02:05:27;98454.56;;;9.36;nan
63715;BME280;49858;48.956;9.076;2022-09-17T02:07:58;98452.69;;;9.40;nan
63715;BME280;49858;48.956;9.076;2022-09-17T02:10:30;98458.81;;;9.50;nan
63715;BME280;49858;48.956;9.076;2022-09-17T02:13:00;98461.13;;;9.47;nan
63715;BME280;49858;48.956;9.076;2022-09-17T02:15:30;98459.84;;;9.45;nan
63715;BME280;49858;48.956;9.076;2022-09-17T02:18:01;98451.91;;;9.40;nan
63715;BME280;49858;48.956;9.076;2022-09-17T02:20:33;98458.63;;;9.42;nan
63715;BME280;49858;48.956;9.076;2022-09-17T02:23:04;98459.78;;;9.41;nan
63715;BME280;49858;48.956;9.076;2022-09-17T02:25:35;98453.94;;;9.27;nan
63715;BME280;49858;48.956;9.076;2022-09-17T02:28:07;98457.38;;;9.40;nan
63715;BME280;49858;48.956;9.076;2022-09-17T02:30:38;98455.53;;;9.28;nan
63715;BME280;49858;48.956;9.076;2022-09-17T02:33:07;98454.75;;;9.28;nan
63715;BME280;49858;48.956;9.076;2022-09-17T02:35:37;98456.34;;;9.29;nan
63715;BME280;49858;48.956;9.076;2022-09-17T02:38:05;98463.31;;;9.26;nan
63715;BME280;49858;48.956;9.076;2022-09-17T02:40:34;98459.44;;;9.27;nan
63715;BME280;49858;48.956;9.076;2022-09-17T02:43:05;98454.44;;;9.17;nan
63715;BME280;49858;48.956;9.076;2022-09-17T02:45:40;98452.16;;;9.19;nan
63715;BME280;49858;48.956;9.076;2022-09-17T02:51:04;98468.44;;;9.12;nan
63715;BME280;49858;48.956;9.076;2022-09-17T02:53:38;98468.34;;;9.08;nan
63715;BME280;49858;48.956;9.076;2022-09-17T02:56:15;98463.66;;;9.09;nan
63715;BME280;49858;48.956;9.076;2022-09-17T02:58:46;98449.06;;;9.05;nan
63715;BME280;49858;48.956;9.076;2022-09-17T03:01:20;98460.97;;;8.96;nan
63715;BME280;49858;48.956;9.076;2022-09-17T03:03:50;98457.09;;;8.98;nan
63715;BME280;49858;48.956;9.076;2022-09-17T03:06:20;98468.94;;;9.02;nan
63715;BME280;49858;48.956;9.076;2022-09-17T03:08:49;98454.84;;;8.87;nan
63715;BME280;49858;48.956;9.076;2022-09-17T03:11:16;98461.84;;;8.85;nan
63715;BME280;49858;48.956;9.076;2022-09-17T03:13:44;98461.59;;;8.90;nan
63715;BME280;49858;48.956;9.076;2022-09-17T03:16:11;98462.53;;;8.82;nan
63715;BME280;49858;48.956;9.076;2022-09-17T03:18:39;98465.97;;;8.79;nan
63715;BME280;49858;48.956;9.076;2022-09-17T03:21:07;98462.38;;;8.90;nan
63715;BME280;49858;48.956;9.076;2022-09-17T03:23:36;98460.91;;;8.65;nan
63715;BME280;49858;48.956;9.076;2022-09-17T03:26:05;98460.75;;;8.74;nan
63715;BME280;49858;48.956;9.076;2022-09-17T03:28:32;98465.19;;;8.78;nan
63715;BME280;49858;48.956;9.076;2022-09-17T03:31:00;98455.22;;;8.58;nan
63715;BME280;49858;48.956;9.076;2022-09-17T03:33:28;98462.97;;;8.56;nan
63715;BME280;49858;48.956;9.076;2022-09-17T03:35:56;98464.34;;;8.62;nan
63715;BME280;49858;48.956;9.076;2022-09-17T03:38:23;98464.38;;;8.78;nan
63715;BME280;49858;48.956;9.076;2022-09-17T03:40:59;98467.78;;;8.59;nan
63715;BME280;49858;48.956;9.076;2022-09-17T03:43:27;98468.19;;;8.73;nan
63715;BME280;49858;48.956;9.076;2022-09-17T03:45:54;98468.97;;;8.45;nan
63715;BME280;49858;48.956;9.076;2022-09-17T03:48:22;98482.66;;;8.58;nan
63715;BME280;49858;48.956;9.076;2022-09-17T03:50:50;98483.31;;;8.55;nan
63715;BME280;49858;48.956;9.076;2022-09-17T03:53:17;98487.81;;;8.47;nan
63715;BME280;49858;48.956;9.076;2022-09-17T03:55:45;98492.94;;;8.49;nan
63715;BME280;49858;48.956;9.076;2022-09-17T03:58:14;98489.75;;;8.47;nan
63715;BME280;49858;48.956;9.076;2022-09-17T04:00:42;98494.44;;;8.46;nan
63715;BME280;49858;48.956;9.076;2022-09-17T04:03:09;98499.81;;;8.30;nan
63715;BME280;49858;48.956;9.076;2022-09-17T04:05:38;98503.25;;;8.39;nan
63715;BME280;49858;48.956;9.076;2022-09-17T04:08:05;98509.44;;;8.64;nan
63715;BME280;49858;48.956;9.076;2022-09-17T04:10:33;98508.84;;;8.43;nan
63715;BME280;49858;48.956;9.076;2022-09-17T04:13:01;98511.78;;;8.50;nan
63715;BME280;49858;48.956;9.076;2022-09-17T04:15:29;98510.47;;;8.72;nan
63715;BME280;49858;48.956;9.076;2022-09-17T04:17:57;98509.31;;;8.73;nan
63715;BME280;49858;48.956;9.076;2022-09-17T04:20:25;98515.22;;;9.03;nan
63715;BME280;49858;48.956;9.076;2022-09-17T04:22:52;98512.84;;;9.02;nan
63715;BME280;49858;48.956;9.076;2022-09-17T04:25:20;98502.59;;;8.70;nan
63715;BME280;49858;48.956;9.076;2022-09-17T04:27:47;98509.69;;;8.72;nan
63715;BME280;49858;48.956;9.076;2022-09-17T04:30:15;98505.91;;;8.64;nan
63715;BME280;49858;48.956;9.076;2022-09-17T04:32:44;98514.25;;;8.67;nan
63715;BME280;49858;48.956;9.076;2022-09-17T04:35:12;98516.00;;;8.88;nan
63715;BME280;49858;48.956;9.076;2022-09-17T04:37:40;98517.81;;;9.12;nan
63715;BME280;49858;48.956;9.076;2022-09-17T04:40:08;98518.09;;;8.79;nan
63715;BME280;49858;48.956;9.076;2022-09-17T04:42:36;98522.91;;;8.69;nan
63715;BME280;49858;48.956;9.076;2022-09-17T04:45:04;98520.75;;;8.75;nan
63715;BME280;49858;48.956;9.076;2022-09-17T04:47:31;98528.81;;;8.84;nan
63715;BME280;49858;48.956;9.076;2022-09-17T04:50:00;98537.78;;;8.68;nan
63715;BME280;49858;48.956;9.076;2022-09-17T04:52:28;98533.09;;;8.97;nan
63715;BME280;49858;48.956;9.076;2022-09-17T04:54:57;98529.72;;;8.88;nan
63715;BME280;49858;48.956;9.076;2022-09-17T04:57:24;98533.09;;;8.69;nan
63715;BME280;49858;48.956;9.076;2022-09-17T04:59:53;98530.06;;;8.46;nan
63715;BME280;49858;48.956;9.076;2022-09-17T05:02:20;98522.88;;;8.41;nan
63715;BME280;49858;48.956;9.076;2022-09-17T05:04:48;98532.94;;;8.37;nan
63715;BME280;49858;48.956;9.076;2022-09-17T05:07:17;98532.00;;;8.45;nan
63715;BME280;49858;48.956;9.076;2022-09-17T05:09:44;98526.34;;;8.38;nan
63715;BME280;49858;48.956;9.076;2022-09-17T05:12:12;98533.16;;;8.32;nan
63715;BME280;49858;48.956;9.076;2022-09-17T05:14:40;98531.34;;;8.36;nan
63715;BME280;49858;48.956;9.076;2022-09-17T05:17:07;98534.63;;;8.42;nan
63715;BME280;49858;48.956;9.076;2022-09-17T05:19:35;98528.94;;;8.35;nan
63715;BME280;49858;48.956;9.076;2022-09-17T05:22:03;98535.34;;;8.39;nan
63715;BME280;49858;48.956;9.076;2022-09-17T05:24:31;98542.06;;;8.29;nan
63715;BME280;49858;48.956;9.076;2022-09-17T05:27:02;98543.09;;;8.25;nan
63715;BME280;49858;48.956;9.076;2022-09-17T05:29:30;98541.16;;;8.25;nan
63715;BME280;49858;48.956;9.076;2022-09-17T05:31:57;98539.88;;;8.35;nan
63715;BME280;49858;48.956;9.076;2022-09-17T05:34:25;98549.25;;;8.34;nan
63715;BME280;49858;48.956;9.076;2022-09-17T05:36:53;98544.03;;;8.29;nan
63715;BME280;49858;48.956;9.076;2022-09-17T05:39:20;98540.91;;;8.55;nan
63715;BME280;49858;48.956;9.076;2022-09-17T05:41:52;98538.66;;;8.44;nan
63715;BME280;49858;48.956;9.076;2022-09-17T05:44:20;98547.41;;;8.50;nan
63715;BME280;49858;48.956;9.076;2022-09-17T05:46:51;98554.97;;;8.53;nan
63715;BME280;49858;48.956;9.076;2022-09-17T05:49:19;98553.50;;;8.84;nan
63715;BME280;49858;48.956;9.076;2022-09-17T05:51:48;98561.91;;;8.63;nan
63715;BME280;49858;48.956;9.076;2022-09-17T05:54:16;98564.84;;;8.70;nan
63715;BME280;49858;48.956;9.076;2022-09-17T05:56:43;98549.47;;;8.53;nan
63715;BME280;49858;48.956;9.076;2022-09-17T05:59:12;98551.63;;;8.60;nan
63715;BME280;49858;48.956;9.076;2022-09-17T06:01:40;98546.63;;;8.90;nan
63715;BME280;49858;48.956;9.076;2022-09-17T06:04:08;98565.34;;;8.60;nan
63715;BME280;49858;48.956;9.076;2022-09-17T06:06:36;98560.06;;;8.67;nan
63715;BME280;49858;48.956;9.076;2022-09-17T06:09:04;98565.97;;;8.81;nan
63715;BME280;49858;48.956;9.076;2022-09-17T06:11:32;98565.25;;;8.84;nan
63715;BME280;49858;48.956;9.076;2022-09-17T06:14:00;98557.53;;;9.02;nan
63715;BME280;49858;48.956;9.076;2022-09-17T06:16:29;98573.59;;;8.88;nan
63715;BME280;49858;48.956;9.076;2022-09-17T06:18:56;98574.88;;;8.78;nan
63715;BME280;49858;48.956;9.076;2022-09-17T06:21:24;98586.09;;;8.73;nan
63715;BME280;49858;48.956;9.076;2022-09-17T06:23:52;98574.47;;;8.64;nan
63715;BME280;49858;48.956;9.076;2022-09-17T06:26:19;98577.28;;;8.80;nan
63715;BME280;49858;48.956;9.076;2022-09-17T06:28:47;98584.25;;;8.89;nan
63715;BME280;49858;48.956;9.076;2022-09-17T06:31:14;98595.78;;;8.83;nan
63715;BME280;49858;48.956;9.076;2022-09-17T06:33:44;98577.53;;;8.75;nan
63715;BME280;49858;48.956;9.076;2022-09-17T06:36:13;98579.31;;;8.83;nan
63715;BME280;49858;48.956;9.076;2022-09-17T06:38:41;98575.28;;;8.92;nan
63715;BME280;49858;48.956;9.076;2022-09-17T06:41:08;98572.84;;;8.75;nan
63715;BME280;49858;48.956;9.076;2022-09-17T06:43:37;98578.84;;;8.93;nan
63715;BME280;49858;48.956;9.076;2022-09-17T06:46:05;98592.50;;;8.65;nan
63715;BME280;49858;48.956;9.076;2022-09-17T06:48:35;98591.16;;;8.71;nan
63715;BME280;49858;48.956;9.076;2022-09-17T06:51:05;98600.03;;;8.80;nan
63715;BME280;49858;48.956;9.076;2022-09-17T06:53:33;98604.06;;;8.34;nan
63715;BME280;49858;48.956;9.076;2022-09-17T06:56:02;98617.31;;;8.32;nan
63715;BME280;49858;48.956;9.076;2022-09-17T06:58:32;98618.81;;;8.29;nan
63715;BME280;49858;48.956;9.076;2022-09-17T07:01:02;98616.38;;;8.28;nan
63715;BME280;49858;48.956;9.076;2022-09-17T07:03:30;98617.41;;;8.23;nan
63715;BME280;49858;48.956;9.076;2022-09-17T07:05:58;98623.59;;;8.20;nan
63715;BME280;49858;48.956;9.076;2022-09-17T07:08:27;98626.94;;;8.38;nan
63715;BME280;49858;48.956;9.076;2022-09-17T07:10:55;98641.19;;;8.19;nan
63715;BME280;49858;48.956;9.076;2022-09-17T07:13:23;98627.47;;;8.31;nan
63715;BME280;49858;48.956;9.076;2022-09-17T07:15:51;98633.78;;;8.44;nan
63715;BME280;49858;48.956;9.076;2022-09-17T07:18:19;98642.31;;;8.30;nan
63715;BME280;49858;48.956;9.076;2022-09-17T07:20:54;98643.34;;;8.01;nan
63715;BME280;49858;48.956;9.076;2022-09-17T07:23:25;98650.28;;;7.99;nan
63715;BME280;49858;48.956;9.076;2022-09-17T07:25:55;98644.69;;;8.07;nan
63715;BME280;49858;48.956;9.076;2022-09-17T07:28:23;98657.63;;;8.31;nan
63715;BME280;49858;48.956;9.076;2022-09-17T07:30:52;98658.31;;;8.16;nan
63715;BME280;49858;48.956;9.076;2022-09-17T07:33:20;98657.28;;;8.33;nan
63715;BME280;49858;48.956;9.076;2022-09-17T07:35:53;98660.16;;;8.49;nan
63715;BME280;49858;48.956;9.076;2022-09-17T07:38:22;98661.63;;;8.46;nan
63715;BME280;49858;48.956;9.076;2022-09-17T07:40:55;98665.31;;;8.62;nan
63715;BME280;49858;48.956;9.076;2022-09-17T07:43:23;98665.78;;;8.52;nan
63715;BME280;49858;48.956;9.076;2022-09-17T07:45:51;98658.56;;;8.60;nan
63715;BME280;49858;48.956;9.076;2022-09-17T07:48:19;98660.16;;;8.73;nan
63715;BME280;49858;48.956;9.076;2022-09-17T07:50:47;98662.00;;;8.57;nan
63715;BME280;49858;48.956;9.076;2022-09-17T07:53:14;98666.44;;;8.74;nan
63715;BME280;49858;48.956;9.076;2022-09-17T07:55:49;98667.81;;;8.67;nan
63715;BME280;49858;48.956;9.076;2022-09-17T07:58:18;98672.81;;;8.65;nan
63715;BME280;49858;48.956;9.076;2022-09-17T08:00:46;98669.50;;;8.84;nan
63715;BME280;49858;48.956;9.076;2022-09-17T08:03:14;98676.94;;;8.72;nan
63715;BME280;49858;48.956;9.076;2022-09-17T08:05:41;98669.41;;;8.81;nan
63715;BME280;49858;48.956;9.076;2022-09-17T08:08:09;98671.06;;;8.98;nan
63715;BME280;49858;48.956;9.076;2022-09-17T08:10:37;98675.25;;;9.19;nan
63715;BME280;49858;48.956;9.076;2022-09-17T08:13:04;98671.34;;;9.20;nan
63715;BME280;49858;48.956;9.076;2022-09-17T08:15:33;98673.91;;;9.13;nan
63715;BME280;49858;48.956;9.076;2022-09-17T08:18:01;98681.41;;;9.29;nan
63715;BME280;49858;48.956;9.076;2022-09-17T08:20:29;98673.59;;;9.31;nan
63715;BME280;49858;48.956;9.076;2022-09-17T08:22:57;98675.72;;;9.50;nan
63715;BME280;49858;48.956;9.076;2022-09-17T08:25:24;98672.22;;;9.65;nan
63715;BME280;49858;48.956;9.076;2022-09-17T08:27:52;98659.13;;;9.74;nan
63715;BME280;49858;48.956;9.076;2022-09-17T08:30:20;98663.59;;;9.94;nan
63715;BME280;49858;48.956;9.076;2022-09-17T08:32:49;98652.38;;;10.47;nan
63715;BME280;49858;48.956;9.076;2022-09-17T08:35:20;98648.44;;;10.64;nan
63715;BME280;49858;48.956;9.076;2022-09-17T08:37:48;98643.94;;;10.24;nan
63715;BME280;49858;48.956;9.076;2022-09-17T08:40:16;98643.56;;;10.10;nan
63715;BME280;49858;48.956;9.076;2022-09-17T08:42:50;98643.47;;;10.54;nan
63715;BME280;49858;48.956;9.076;2022-09-17T08:45:19;98627.66;;;10.66;nan
63715;BME280;49858;48.956;9.076;2022-09-17T08:47:47;98647.56;;;11.34;nan
63715;BME280;49858;48.956;9.076;2022-09-17T08:50:19;98638.25;;;10.48;nan
63715;BME280;49858;48.956;9.076;2022-09-17T08:52:58;98640.69;;;11.24;nan
63715;BME280;49858;48.956;9.076;2022-09-17T08:55:29;98635.63;;;10.87;nan
63715;BME280;49858;48.956;9.076;2022-09-17T08:58:03;98642.25;;;10.86;nan
63715;BME280;49858;48.956;9.076;2022-09-17T09:00:36;98648.16;;;10.69;nan
63715;BME280;49858;48.956;9.076;2022-09-17T09:03:14;98643.38;;;10.66;nan
63715;BME280;49858;48.956;9.076;2022-09-17T09:05:48;98640.19;;;10.64;nan
63715;BME280;49858;48.956;9.076;2022-09-17T09:08:19;98638.97;;;10.45;nan
63715;BME280;49858;48.956;9.076;2022-09-17T09:10:49;98651.66;;;10.85;nan
63715;BME280;49858;48.956;9.076;2022-09-17T09:13:21;98645.97;;;10.94;nan
63715;BME280;49858;48.956;9.076;2022-09-17T09:15:51;98649.41;;;11.07;nan
63715;BME280;49858;48.956;9.076;2022-09-17T09:18:21;98647.75;;;11.21;nan
63715;BME280;49858;48.956;9.076;2022-09-17T09:20:51;98646.06;;;11.36;nan
63715;BME280;49858;48.956;9.076;2022-09-17T09:23:23;98647.38;;;11.23;nan
63715;BME280;49858;48.956;9.076;2022-09-17T09:25:55;98654.53;;;11.08;nan
63715;BME280;49858;48.956;9.076;2022-09-17T09:28:34;98653.81;;;11.11;nan
63715;BME280;49858;48.956;9.076;2022-09-17T09:31:11;98638.19;;;11.96;nan
63715;BME280;49858;48.956;9.076;2022-09-17T09:33:43;98648.00;;;11.55;nan
63715;BME280;49858;48.956;9.076;2022-09-17T09:36:15;98652.28;;;11.52;nan
63715;BME280;49858;48.956;9.076;2022-09-17T09:38:49;98646.78;;;11.14;nan
63715;BME280;49858;48.956;9.076;2022-09-17T09:41:21;98647.22;;;11.55;nan
63715;BME280;49858;48.956;9.076;2022-09-17T09:43:56;98635.13;;;12.01;nan
63715;BME280;49858;48.956;9.076;2022-09-17T09:46:32;98633.31;;;11.09;nan
63715;BME280;49858;48.956;9.076;2022-09-17T09:49:06;98631.00;;;11.11;nan
63715;BME280;49858;48.956;9.076;2022-09-17T09:51:39;98632.13;;;10.90;nan
63715;BME280;49858;48.956;9.076;2022-09-17T09:54:12;98642.34;;;10.90;nan
63715;BME280;49858;48.956;9.076;2022-09-17T09:56:54;98640.84;;;10.92;nan
63715;BME280;49858;48.956;9.076;2022-09-17T09:59:25;98649.16;;;10.96;nan
63715;BME280;49858;48.956;9.076;2022-09-17T10:01:53;98634.75;;;11.03;nan
63715;BME280;49858;48.956;9.076;2022-09-17T10:04:21;98634.56;;;11.31;nan
63715;BME280;49858;48.956;9.076;2022-09-17T10:06:52;98636.56;;;11.14;nan
63715;BME280;49858;48.956;9.076;2022-09-17T10:09:20;98624.28;;;11.70;nan
63715;BME280;49858;48.956;9.076;2022-09-17T10:11:58;98613.44;;;11.81;nan
63715;BME280;49858;48.956;9.076;2022-09-17T10:14:27;98610.94;;;11.72;nan
63715;BME280;49858;48.956;9.076;2022-09-17T10:17:14;98603.44;;;11.49;nan
63715;BME280;49858;48.956;9.076;2022-09-17T10:19:45;98619.19;;;11.49;nan
63715;BME280;49858;48.956;9.076;2022-09-17T10:22:19;98613.38;;;11.96;nan
63715;BME280;49858;48.956;9.076;2022-09-17T10:24:49;98624.44;;;11.77;nan
63715;BME280;49858;48.956;9.076;2022-09-17T10:27:18;98609.72;;;12.38;nan
63715;BME280;49858;48.956;9.076;2022-09-17T10:29:46;98614.88;;;12.66;nan
63715;BME280;49858;48.956;9.076;2022-09-17T10:32:17;98596.78;;;13.29;nan
63715;BME280;49858;48.956;9.076;2022-09-17T10:34:55;98601.50;;;12.42;nan
63715;BME280;49858;48.956;9.076;2022-09-17T10:37:42;98605.06;;;12.42;nan
63715;BME280;49858;48.956;9.076;2022-09-17T10:40:23;98619.25;;;11.95;nan
63715;BME280;49858;48.956;9.076;2022-09-17T10:45:34;98599.78;;;12.07;nan
63715;BME280;49858;48.956;9.076;2022-09-17T10:48:04;98599.22;;;12.74;nan
63715;BME280;49858;48.956;9.076;2022-09-17T10:50:32;98588.13;;;13.30;nan
63715;BME280;49858;48.956;9.076;2022-09-17T10:53:03;98590.47;;;14.06;nan
63715;BME280;49858;48.956;9.076;2022-09-17T10:55:32;98609.25;;;13.49;nan
63715;BME280;49858;48.956;9.076;2022-09-17T10:58:08;98592.16;;;13.07;nan
63715;BME280;49858;48.956;9.076;2022-09-17T11:00:43;98598.16;;;13.83;nan
63715;BME280;49858;48.956;9.076;2022-09-17T11:03:20;98589.19;;;13.93;nan
63715;BME280;49858;48.956;9.076;2022-09-17T11:05:58;98592.28;;;13.47;nan
63715;BME280;49858;48.956;9.076;2022-09-17T11:08:32;98576.38;;;13.74;nan
63715;BME280;49858;48.956;9.076;2022-09-17T11:11:05;98580.81;;;13.86;nan
63715;BME280;49858;48.956;9.076;2022-09-17T11:13:36;98580.88;;;12.89;nan
63715;BME280;49858;48.956;9.076;2022-09-17T11:16:11;98590.00;;;12.63;nan
63715;BME280;49858;48.956;9.076;2022-09-17T11:18:41;98593.28;;;11.54;nan
63715;BME280;49858;48.956;9.076;2022-09-17T11:21:20;98600.22;;;11.86;nan
63715;BME280;49858;48.956;9.076;2022-09-17T11:24:04;98596.22;;;11.84;nan
63715;BME280;49858;48.956;9.076;2022-09-17T11:26:39;98581.03;;;12.43;nan
63715;BME280;49858;48.956;9.076;2022-09-17T11:29:14;98588.22;;;12.51;nan
63715;BME280;49858;48.956;9.076;2022-09-17T11:31:46;98570.88;;;12.50;nan
63715;BME280;49858;48.956;9.076;2022-09-17T11:34:20;98570.19;;;12.31;nan
63715;BME280;49858;48.956;9.076;2022-09-17T11:36:50;98570.75;;;12.40;nan
63715;BME280;49858;48.956;9.076;2022-09-17T11:39:22;98583.78;;;12.43;nan
63715;BME280;49858;48.956;9.076;2022-09-17T11:41:52;98587.38;;;12.20;nan
63715;BME280;49858;48.956;9.076;2022-09-17T11:44:21;98578.34;;;11.55;nan
63715;BME280;49858;48.956;9.076;2022-09-17T11:46:52;98588.88;;;11.49;nan
63715;BME280;49858;48.956;9.076;2022-09-17T11:49:22;98584.50;;;11.67;nan
63715;BME280;49858;48.956;9.076;2022-09-17T11:51:53;98583.94;;;11.58;nan
63715;BME280;49858;48.956;9.076;2022-09-17T11:54:25;98579.75;;;11.45;nan
63715;BME280;49858;48.956;9.076;2022-09-17T11:56:57;98590.25;;;11.59;nan
63715;BME280;49858;48.956;9.076;2022-09-17T11:59:33;98588.44;;;12.12;nan
63715;BME280;49858;48.956;9.076;2022-09-17T12:02:05;98576.06;;;12.02;nan
63715;BME280;49858;48.956;9.076;2022-09-17T12:04:40;98582.03;;;12.31;nan
63715;BME280;49858;48.956;9.076;2022-09-17T12:07:21;98607.94;;;11.81;nan
63715;BME280;49858;48.956;9.076;2022-09-17T12:09:56;98626.88;;;11.01;nan
63715;BME280;49858;48.956;9.076;2022-09-17T12:12:25;98631.81;;;10.76;nan
63715;BME280;49858;48.956;9.076;2022-09-17T12:15:17;98622.38;;;10.93;nan
63715;BME280;49858;48.956;9.076;2022-09-17T12:17:46;98616.34;;;11.45;nan
63715;BME280;49858;48.956;9.076;2022-09-17T12:20:17;98607.09;;;11.99;nan
63715;BME280;49858;48.956;9.076;2022-09-17T12:22:49;98594.41;;;11.91;nan
63715;BME280;49858;48.956;9.076;2022-09-17T12:25:19;98601.38;;;11.66;nan
63715;BME280;49858;48.956;9.076;2022-09-17T12:27:49;98590.34;;;11.66;nan
63715;BME280;49858;48.956;9.076;2022-09-17T12:30:20;98584.06;;;11.65;nan
63715;BME280;49858;48.956;9.076;2022-09-17T12:33:12;98590.97;;;11.56;nan
63715;BME280;49858;48.956;9.076;2022-09-17T12:38:34;98574.31;;;11.48;nan
63715;BME280;49858;48.956;9.076;2022-09-17T12:41:10;98578.53;;;11.23;nan
63715;BME280;49858;48.956;9.076;2022-09-17T12:43:47;98572.84;;;11.55;nan
63715;BME280;49858;48.956;9.076;2022-09-17T12:46:27;98575.38;;;11.63;nan
63715;BME280;49858;48.956;9.076;2022-09-17T12:49:02;98577.88;;;11.95;nan
63715;BME280;49858;48.956;9.076;2022-09-17T12:51:49;98577.63;;;12.26;nan
63715;BME280;49858;48.956;9.076;2022-09-17T12:54:21;98585.22;;;12.33;nan
63715;BME280;49858;48.956;9.076;2022-09-17T12:56:58;98582.56;;;12.40;nan
63715;BME280;49858;48.956;9.076;2022-09-17T12:59:29;98581.88;;;11.97;nan
63715;BME280;49858;48.956;9.076;2022-09-17T13:01:59;98603.94;;;11.97;nan
63715;BME280;49858;48.956;9.076;2022-09-17T13:04:34;98584.28;;;11.57;nan
63715;BME280;49858;48.956;9.076;2022-09-17T13:07:33;98589.50;;;11.62;nan
63715;BME280;49858;48.956;9.076;2022-09-17T13:10:08;98578.50;;;11.85;nan
63715;BME280;49858;48.956;9.076;2022-09-17T13:12:40;98576.22;;;12.13;nan
63715;BME280;49858;48.956;9.076;2022-09-17T13:18:11;98570.34;;;12.41;nan
63715;BME280;49858;48.956;9.076;2022-09-17T13:20:57;98567.25;;;12.43;nan
63715;BME280;49858;48.956;9.076;2022-09-17T13:23:29;98563.84;;;12.26;nan
63715;BME280;49858;48.956;9.076;2022-09-17T13:25:58;98570.09;;;12.50;nan
63715;BME280;49858;48.956;9.076;2022-09-17T13:28:40;98561.28;;;12.41;nan
63715;BME280;49858;48.956;9.076;2022-09-17T13:31:12;98569.69;;;12.48;nan
63715;BME280;49858;48.956;9.076;2022-09-17T13:33:52;98568.97;;;12.54;nan
63715;BME280;49858;48.956;9.076;2022-09-17T13:36:34;98566.81;;;12.41;nan
63715;BME280;49858;48.956;9.076;2022-09-17T13:39:03;98568.91;;;12.51;nan
63715;BME280;49858;48.956;9.076;2022-09-17T13:41:33;98574.38;;;11.75;nan
63715;BME280;49858;48.956;9.076;2022-09-17T13:44:03;98588.44;;;11.89;nan
63715;BME280;49858;48.956;9.076;2022-09-17T13:46:31;98576.13;;;11.83;nan
63715;BME280;49858;48.956;9.076;2022-09-17T13:49:00;98566.38;;;11.89;nan
63715;BME280;49858;48.956;9.076;2022-09-17T13:51:45;98568.56;;;12.52;nan
63715;BME280;49858;48.956;9.076;2022-09-17T13:54:14;98567.28;;;12.46;nan
63715;BME280;49858;48.956;9.076;2022-09-17T13:56:45;98562.59;;;12.50;nan
63715;BME280;49858;48.956;9.076;2022-09-17T13:59:15;98561.66;;;12.39;nan
63715;BME280;49858;48.956;9.076;2022-09-17T14:04:34;98566.94;;;12.78;nan
63715;BME280;49858;48.956;9.076;2022-09-17T14:07:31;98569.69;;;12.78;nan